Time;durP1;ratioP1;P1;durP2;ratioP2;P2;SDS_P1;SDS_P2;PMS_P1;PMS_P2;Temp;Humidity;BMP_temperature;BMP_pressure;BME280_temperature;BME280_humidity;BME280_pressure;Samples;Min_cycle;Max_cycle;Signal;HPM_P1;HPM_P2
2022/07/19 00:06:17;;;;;;;6.2;10;;;;;;;13.3;100;99180;;;;
2022/07/19 00:17:17;;;;;;;6.2;10;;;;;;;13.3;100;99170;;;;
2022/07/19 00:27:17;;;;;;;6.2;10;;;;;;;13.1;100;99150;;;;
2022/07/19 00:37:17;;;;;;;6.5;11.1;;;;;;;13.1;100;99160;;;;
2022/07/19 00:48:18;;;;;;;6.5;11.1;;;;;;;13.1;100;99170;;;;
2022/07/19 00:59:17;;;;;;;6.5;11.1;;;;;;;13;100;99170;;;;
2022/07/19 01:09:17;;;;;;;6.1;10.8;;;;;;;12.9;100;99170;;;;
2022/07/19 01:19:17;;;;;;;6.1;10.8;;;;;;;12.8;100;99170;;;;
2022/07/19 01:29:17;;;;;;;6.1;10.8;;;;;;;12.7;100;99170;;;;
2022/07/19 01:40:17;;;;;;;5.7;9.6;;;;;;;12.6;100;99160;;;;
2022/07/19 01:50:17;;;;;;;5.7;9.6;;;;;;;12.7;100;99170;;;;
2022/07/19 02:00:17;;;;;;;5.7;9.6;;;;;;;12.7;100;99160;;;;
2022/07/19 02:11:49;;;;;;;5.8;11;;;;;;;13;100;99160;;;;
2022/07/19 02:21:17;;;;;;;5.8;11;;;;;;;13.2;100;99160;;;;
2022/07/19 02:32:17;;;;;;;5.8;11;;;;;;;13.4;100;99170;;;;
2022/07/19 02:43:17;;;;;;;5.3;7.9;;;;;;;13.6;100;99180;;;;
2022/07/19 02:53:17;;;;;;;5.3;7.9;;;;;;;13.7;100;99180;;;;
2022/07/19 03:04:17;;;;;;;5.3;7.9;;;;;;;13.6;100;99180;;;;
2022/07/19 03:15:17;;;;;;;6.1;9.8;;;;;;;13.6;100;99180;;;;
2022/07/19 03:26:17;;;;;;;6.1;9.8;;;;;;;13.7;100;99180;;;;
2022/07/19 03:36:17;;;;;;;5.3;11.7;;;;;;;13.9;100;99180;;;;
2022/07/19 03:47:17;;;;;;;5.3;11.7;;;;;;;14.2;100;99190;;;;
2022/07/19 03:57:17;;;;;;;5.3;11.7;;;;;;;14.6;100;99200;;;;
2022/07/19 04:08:17;;;;;;;6;9.2;;;;;;;15;100;99210;;;;
2022/07/19 04:18:17;;;;;;;6;9.2;;;;;;;15.5;100;99220;;;;
2022/07/19 04:29:17;;;;;;;6;9.2;;;;;;;15.7;100;99220;;;;
2022/07/19 04:39:17;;;;;;;5;12.2;;;;;;;15.8;100;99230;;;;
2022/07/19 04:49:17;;;;;;;5;12.2;;;;;;;16.3;100;99230;;;;
2022/07/19 05:00:17;;;;;;;5;12.2;;;;;;;16.9;100;99230;;;;
2022/07/19 05:10:17;;;;;;;3.7;9.6;;;;;;;17;100;99240;;;;
2022/07/19 05:21:17;;;;;;;3.7;9.6;;;;;;;17.4;100;99240;;;;
2022/07/19 05:32:17;;;;;;;3.7;9.6;;;;;;;17.8;100;99240;;;;
2022/07/19 05:42:17;;;;;;;3.1;6.2;;;;;;;18.4;100;99230;;;;
2022/07/19 05:53:18;;;;;;;3.1;6.2;;;;;;;18.6;100;99230;;;;
2022/07/19 06:04:17;;;;;;;3.1;6.2;;;;;;;18.9;100;99230;;;;
2022/07/19 06:15:17;;;;;;;3.6;8.1;;;;;;;19.2;100;99230;;;;
2022/07/19 06:25:17;;;;;;;3.6;8.1;;;;;;;19.6;100;99220;;;;
2022/07/19 06:35:18;;;;;;;3.3;7.7;;;;;;;20;100;99230;;;;
2022/07/19 06:45:17;;;;;;;3.3;7.7;;;;;;;20.3;100;99230;;;;
2022/07/19 06:56:17;;;;;;;3.3;7.7;;;;;;;20.6;100;99230;;;;
2022/07/19 07:06:17;;;;;;;2.8;10.4;;;;;;;21.2;100;99230;;;;
2022/07/19 07:17:17;;;;;;;2.8;10.4;;;;;;;21.8;100;99220;;;;
2022/07/19 07:27:17;;;;;;;2.8;10.4;;;;;;;22.3;100;99220;;;;
2022/07/19 07:37:17;;;;;;;2.6;6.8;;;;;;;23.2;100;99220;;;;
2022/07/19 07:48:17;;;;;;;2.6;6.8;;;;;;;23.5;100;99230;;;;
2022/07/19 07:58:17;;;;;;;2.6;6.8;;;;;;;23.7;94.6;99230;;;;
2022/07/19 08:09:17;;;;;;;2.3;5.9;;;;;;;24.3;93.1;99230;;;;
2022/07/19 08:19:17;;;;;;;2.3;5.9;;;;;;;24.6;87;99230;;;;
2022/07/19 08:29:17;;;;;;;2.3;5.9;;;;;;;24.9;87;99220;;;;
2022/07/19 08:40:17;;;;;;;2.3;5.9;;;;;;;25.5;85.9;99210;;;;
2022/07/19 08:50:18;;;;;;;2.3;5.9;;;;;;;26.4;82.5;99220;;;;
2022/07/19 09:01:17;;;;;;;2.3;5.9;;;;;;;26.1;76.5;99210;;;;
2022/07/19 09:11:18;;;;;;;1.8;4.5;;;;;;;26.3;71;99220;;;;
2022/07/19 09:22:17;;;;;;;1.8;4.5;;;;;;;26.9;68.4;99210;;;;
2022/07/19 09:32:17;;;;;;;1.8;4.5;;;;;;;27.5;65.8;99200;;;;
2022/07/19 09:43:19;;;;;;;1.9;4.4;;;;;;;27.1;67;99190;;;;
2022/07/19 09:53:17;;;;;;;1.9;4.4;;;;;;;27.3;61;99190;;;;
2022/07/19 10:03:17;;;;;;;1.9;4.4;;;;;;;27.9;61;99190;;;;
2022/07/19 10:14:18;;;;;;;1.9;4.5;;;;;;;28.2;61;99190;;;;
2022/07/19 10:24:17;;;;;;;1.9;4.5;;;;;;;28.2;55.6;99190;;;;
2022/07/19 10:34:17;;;;;;;1.9;4.5;;;;;;;28;57.5;99180;;;;
2022/07/19 10:44:18;;;;;;;1.5;4.9;;;;;;;28.6;58.7;99170;;;;
2022/07/19 10:54:18;;;;;;;1.5;4.9;;;;;;;29.2;59;99170;;;;
2022/07/19 11:05:18;;;;;;;1.5;4.9;;;;;;;29.2;55.6;99160;;;;
2022/07/19 11:16:18;;;;;;;1.6;3.5;;;;;;;29.5;55.8;99140;;;;
2022/07/19 11:26:17;;;;;;;1.6;3.5;;;;;;;29.5;57.9;99130;;;;
2022/07/19 11:37:18;;;;;;;2;5;;;;;;;29;58.9;99140;;;;
2022/07/19 11:48:18;;;;;;;2;5;;;;;;;29.1;55.6;99130;;;;
2022/07/19 11:59:18;;;;;;;2;5;;;;;;;28.8;63;99120;;;;
2022/07/19 12:10:18;;;;;;;2;5.2;;;;;;;29.1;63.4;99110;;;;
2022/07/19 12:20:17;;;;;;;2;5.2;;;;;;;29.4;59.4;99110;;;;
2022/07/19 12:31:18;;;;;;;2;5.2;;;;;;;29.3;57.1;99100;;;;
2022/07/19 12:41:18;;;;;;;1.7;5.3;;;;;;;29.1;55.6;99100;;;;
2022/07/19 12:52:18;;;;;;;1.7;5.3;;;;;;;29.4;55.6;99090;;;;
2022/07/19 13:03:18;;;;;;;1.7;5.3;;;;;;;29.2;56.5;99070;;;;
2022/07/19 13:13:18;;;;;;;2.5;5.1;;;;;;;29.4;53.7;99070;;;;
2022/07/19 13:23:18;;;;;;;2.5;5.1;;;;;;;29.5;55.6;99060;;;;
2022/07/19 13:34:18;;;;;;;2.5;5.1;;;;;;;29.7;52.4;99050;;;;
2022/07/19 13:44:18;;;;;;;1.7;4.8;;;;;;;29.8;52.6;99050;;;;
2022/07/19 13:54:18;;;;;;;1.7;4.8;;;;;;;30.1;50.6;99050;;;;
2022/07/19 14:04:18;;;;;;;1.7;4.8;;;;;;;30.2;52.6;99040;;;;
2022/07/19 14:15:18;;;;;;;1.8;4.2;;;;;;;30.5;50.4;99030;;;;
2022/07/19 14:25:18;;;;;;;1.8;4.2;;;;;;;30.8;52.9;99020;;;;
2022/07/19 14:36:18;;;;;;;2.4;5.5;;;;;;;30.7;52.2;99010;;;;
2022/07/19 14:46:18;;;;;;;2.4;5.5;;;;;;;31.4;48.7;99000;;;;
2022/07/19 14:56:18;;;;;;;2.4;5.5;;;;;;;31.5;48.3;99010;;;;
2022/07/19 15:07:18;;;;;;;2;4.9;;;;;;;31.6;53.2;99000;;;;
2022/07/19 15:17:18;;;;;;;2;4.9;;;;;;;34.5;44.4;99000;;;;
2022/07/19 15:28:18;;;;;;;2;4.9;;;;;;;36.5;41.4;99000;;;;
2022/07/19 15:39:18;;;;;;;1.9;5.5;;;;;;;37.8;38.3;99000;;;;
2022/07/19 15:49:18;;;;;;;1.9;5.5;;;;;;;38.6;38.8;98990;;;;
2022/07/19 15:59:18;;;;;;;1.9;5.5;;;;;;;38.8;38.2;98980;;;;
2022/07/19 16:10:18;;;;;;;2.1;6.1;;;;;;;39.4;37.7;98980;;;;
2022/07/19 16:21:18;;;;;;;2.1;6.1;;;;;;;39.8;35.8;98980;;;;
2022/07/19 16:31:18;;;;;;;2.1;6.1;;;;;;;39.9;35.2;98970;;;;
2022/07/19 16:42:18;;;;;;;2;8.4;;;;;;;39.9;35.5;98970;;;;
2022/07/19 16:52:18;;;;;;;2;8.4;;;;;;;39.4;37.3;98970;;;;
2022/07/19 17:03:18;;;;;;;2;8.4;;;;;;;38.6;38.1;98960;;;;
2022/07/19 17:14:18;;;;;;;1.7;4.4;;;;;;;38.2;39.5;98950;;;;
2022/07/19 17:24:18;;;;;;;1.7;4.4;;;;;;;35.1;43.1;98930;;;;
2022/07/19 17:34:18;;;;;;;1.7;4.4;;;;;;;32.9;49.4;98930;;;;
2022/07/19 17:45:18;;;;;;;1.6;4.6;;;;;;;30.9;61.7;98930;;;;
2022/07/19 17:56:18;;;;;;;1.6;4.6;;;;;;;32.1;57.3;98930;;;;
2022/07/19 18:07:18;;;;;;;2.1;5;;;;;;;30.2;58;98930;;;;
2022/07/19 18:18:18;;;;;;;2.1;5;;;;;;;28.4;62.9;98930;;;;
2022/07/19 18:28:18;;;;;;;2.1;5;;;;;;;26.7;68.3;98920;;;;
2022/07/19 18:38:18;;;;;;;4.2;8.7;;;;;;;25.5;73;98920;;;;
2022/07/19 18:48:28;;;;;;;4.2;8.7;;;;;;;24.5;77.4;98930;;;;
2022/07/19 18:59:18;;;;;;;4.2;8.7;;;;;;;23.5;84.6;98930;;;;
2022/07/19 19:09:18;;;;;;;3.6;7.7;;;;;;;22.9;85.2;98940;;;;
2022/07/19 19:19:18;;;;;;;3.6;7.7;;;;;;;22.2;93.2;98940;;;;
2022/07/19 19:30:18;;;;;;;3.6;7.7;;;;;;;21.9;90.4;98940;;;;
2022/07/19 19:41:18;;;;;;;4.7;9.2;;;;;;;21.6;89.7;98950;;;;
2022/07/19 19:52:18;;;;;;;4.7;9.2;;;;;;;21.1;94.4;98950;;;;
2022/07/19 20:03:18;;;;;;;4.7;9.2;;;;;;;20.8;92.4;98960;;;;
2022/07/19 20:14:19;;;;;;;3.3;6.7;;;;;;;20.5;92.8;98960;;;;
2022/07/19 20:24:18;;;;;;;3.3;6.7;;;;;;;20.2;95.7;98950;;;;
2022/07/19 20:35:18;;;;;;;3.3;6.7;;;;;;;20;95.8;98950;;;;
2022/07/19 20:45:20;;;;;;;3.4;9.5;;;;;;;19.8;97.7;98960;;;;
2022/07/19 20:55:18;;;;;;;3.4;9.5;;;;;;;19.6;100;98960;;;;
2022/07/19 21:06:18;;;;;;;3.4;9.5;;;;;;;19.4;100;98970;;;;
2022/07/19 21:17:18;;;;;;;4.8;8.8;;;;;;;19.1;100;98980;;;;
2022/07/19 21:28:18;;;;;;;4.8;8.8;;;;;;;18.8;100;98980;;;;
2022/07/19 21:39:18;;;;;;;5.8;9.4;;;;;;;18.6;100;98980;;;;
2022/07/19 21:49:18;;;;;;;5.8;9.4;;;;;;;18.4;100;98980;;;;
2022/07/19 21:59:18;;;;;;;5.8;9.4;;;;;;;18.2;100;98980;;;;
2022/07/19 22:09:18;;;;;;;6.3;10.3;;;;;;;18.1;100;98990;;;;
2022/07/19 22:20:18;;;;;;;6.3;10.3;;;;;;;17.9;100;98990;;;;
2022/07/19 22:31:18;;;;;;;6.3;10.3;;;;;;;17.7;100;99000;;;;
2022/07/19 22:42:18;;;;;;;5.1;8.6;;;;;;;17.5;100;98990;;;;
2022/07/19 22:53:18;;;;;;;5.1;8.6;;;;;;;17.4;100;98990;;;;
2022/07/19 23:03:18;;;;;;;5.1;8.6;;;;;;;17.2;100;99000;;;;
2022/07/19 23:14:18;;;;;;;6.3;9.7;;;;;;;17;100;99010;;;;
2022/07/19 23:25:18;;;;;;;6.3;9.7;;;;;;;16.8;100;99010;;;;
2022/07/19 23:35:18;;;;;;;6.3;9.7;;;;;;;16.7;100;99000;;;;
2022/07/19 23:46:18;;;;;;;5.5;9.7;;;;;;;16.5;100;99000;;;;
2022/07/19 23:57:18;;;;;;;5.5;9.7;;;;;;;16.4;100;99000;;;;
